createdAt,value
2022-08-03T00:00:05.390Z,0.00
2022-08-03T00:00:55.356Z,0.00
2022-08-03T00:01:45.354Z,0.00
2022-08-03T00:02:35.390Z,0.00
2022-08-03T00:03:25.411Z,0.00
2022-08-03T00:04:15.324Z,0.00
2022-08-03T00:05:05.346Z,0.00
2022-08-03T00:06:04.851Z,0.00
2022-08-03T00:06:46.305Z,0.00
2022-08-03T00:07:35.287Z,0.00
2022-08-03T00:08:25.285Z,0.00
2022-08-03T00:09:15.286Z,0.00
2022-08-03T00:10:05.265Z,0.00
2022-08-03T00:10:55.255Z,0.00
2022-08-03T00:11:45.246Z,0.00
2022-08-03T00:12:35.254Z,0.00
2022-08-03T00:13:25.234Z,0.00
2022-08-03T00:14:15.216Z,0.00
2022-08-03T00:15:11.256Z,0.00
2022-08-03T00:15:56.200Z,0.00
2022-08-03T00:16:45.197Z,0.00
2022-08-03T00:17:52.122Z,0.00
2022-08-03T00:18:26.177Z,0.00
2022-08-03T00:19:15.183Z,0.00
2022-08-03T00:20:05.165Z,0.00
2022-08-03T00:20:55.146Z,0.00
2022-08-03T00:21:45.146Z,0.00
2022-08-03T00:22:35.127Z,0.00
2022-08-03T00:23:25.127Z,0.00
2022-08-03T00:24:15.157Z,0.00
2022-08-03T00:25:05.107Z,0.00
2022-08-03T00:25:55.104Z,0.00
2022-08-03T00:26:45.087Z,0.00
2022-08-03T00:27:35.084Z,0.00
2022-08-03T00:28:25.067Z,0.00
2022-08-03T00:29:15.076Z,0.00
2022-08-03T00:30:05.047Z,0.00
2022-08-03T00:30:55.046Z,0.00
2022-08-03T00:31:59.151Z,0.00
2022-08-03T00:32:36.027Z,0.00
2022-08-03T00:33:25.019Z,0.00
2022-08-03T00:34:15.029Z,0.00
2022-08-03T00:35:09.812Z,0.00
2022-08-03T00:35:55.995Z,0.00
2022-08-03T00:36:44.983Z,0.00
2022-08-03T00:37:40.909Z,0.00
2022-08-03T00:38:25.962Z,0.00
2022-08-03T00:39:14.976Z,0.00
2022-08-03T00:40:05.532Z,0.00
2022-08-03T00:40:54.937Z,0.00
2022-08-03T00:41:44.928Z,0.00
2022-08-03T00:42:34.926Z,0.00
2022-08-03T00:43:24.913Z,0.00
2022-08-03T00:44:14.906Z,0.00
2022-08-03T00:45:04.906Z,0.00
2022-08-03T00:45:54.895Z,0.00
2022-08-03T00:46:44.875Z,0.00
2022-08-03T00:47:34.896Z,0.00
2022-08-03T00:48:33.488Z,0.00
2022-08-03T00:49:15.919Z,0.00
2022-08-03T00:50:04.841Z,0.00
2022-08-03T00:50:54.835Z,0.00
2022-08-03T00:51:44.834Z,0.00
2022-08-03T00:52:34.815Z,0.00
2022-08-03T00:53:24.799Z,0.00
2022-08-03T00:54:14.796Z,0.00
2022-08-03T00:55:04.785Z,0.00
2022-08-03T00:55:54.779Z,0.00
2022-08-03T00:56:59.590Z,0.00
2022-08-03T00:57:35.765Z,0.00
2022-08-03T00:58:24.749Z,0.00
2022-08-03T00:59:14.743Z,0.00
2022-08-03T01:00:04.726Z,0.00
2022-08-03T01:00:54.760Z,0.00
2022-08-03T01:01:44.807Z,0.00
2022-08-03T01:02:34.707Z,0.00
2022-08-03T01:03:24.693Z,0.00
2022-08-03T01:04:14.685Z,0.00
2022-08-03T01:05:04.674Z,0.00
2022-08-03T01:05:54.673Z,0.00
2022-08-03T01:06:44.676Z,0.00
2022-08-03T01:07:34.655Z,0.00
2022-08-03T01:08:24.644Z,0.00
2022-08-03T01:09:14.633Z,0.00
2022-08-03T01:10:04.615Z,0.00
2022-08-03T01:10:54.625Z,0.00
2022-08-03T01:12:00.299Z,0.00
2022-08-03T01:12:35.612Z,0.00
2022-08-03T01:14:03.494Z,0.00
2022-08-03T01:14:18.426Z,0.00
2022-08-03T01:15:04.565Z,0.00
2022-08-03T01:15:54.593Z,0.00
2022-08-03T01:16:44.547Z,0.00
2022-08-03T01:17:34.565Z,0.00
2022-08-03T01:18:24.525Z,0.00
2022-08-03T01:19:14.525Z,0.00
2022-08-03T01:20:04.505Z,0.00
2022-08-03T01:20:54.504Z,0.00
2022-08-03T01:21:44.495Z,0.00
2022-08-03T01:22:34.485Z,0.00
2022-08-03T01:23:24.493Z,0.00
2022-08-03T01:24:14.467Z,0.00
2022-08-03T01:25:04.464Z,0.00
2022-08-03T01:25:54.729Z,0.00
2022-08-03T01:26:44.442Z,0.00
2022-08-03T01:27:34.465Z,0.00
2022-08-03T01:28:24.422Z,0.00
2022-08-03T01:29:14.415Z,0.00
2022-08-03T01:30:04.404Z,0.00
2022-08-03T01:30:54.404Z,0.00
2022-08-03T01:32:59.008Z,0.00
2022-08-03T01:32:59.082Z,0.00
2022-08-03T01:33:25.380Z,0.00
2022-08-03T01:34:14.634Z,0.00
2022-08-03T01:35:04.351Z,0.00
2022-08-03T01:35:54.362Z,0.00
2022-08-03T01:36:44.333Z,0.00
2022-08-03T01:37:34.324Z,0.00
2022-08-03T01:38:24.312Z,0.00
2022-08-03T01:39:14.303Z,0.00
2022-08-03T01:40:04.294Z,0.00
2022-08-03T01:40:54.304Z,0.00
2022-08-03T01:41:44.275Z,0.00
2022-08-03T01:42:34.272Z,0.00
2022-08-03T01:43:55.388Z,0.00
2022-08-03T01:44:29.302Z,0.00
2022-08-03T01:45:05.244Z,0.00
2022-08-03T01:45:54.254Z,0.00
2022-08-03T01:46:47.546Z,0.00
2022-08-03T01:47:34.212Z,0.00
2022-08-03T01:48:24.203Z,0.00
2022-08-03T01:49:14.227Z,0.00
2022-08-03T01:50:04.184Z,0.00
2022-08-03T01:50:54.175Z,0.00
2022-08-03T01:52:04.378Z,0.00
2022-08-03T01:52:35.161Z,0.00
2022-08-03T01:53:24.143Z,0.00
2022-08-03T01:54:14.142Z,0.00
2022-08-03T01:55:04.124Z,0.00
2022-08-03T01:55:54.120Z,0.00
2022-08-03T01:56:44.123Z,0.00
2022-08-03T01:57:34.102Z,0.00
2022-08-03T01:58:25.092Z,0.00
2022-08-03T01:59:14.084Z,0.00
2022-08-03T02:00:04.100Z,0.00
2022-08-03T02:00:54.106Z,0.00
2022-08-03T02:02:16.057Z,0.00
2022-08-03T02:02:35.217Z,0.00
2022-08-03T02:03:24.044Z,0.00
2022-08-03T02:04:14.044Z,0.00
2022-08-03T02:05:04.015Z,0.00
2022-08-03T02:06:11.496Z,0.00
2022-08-03T02:07:01.755Z,0.00
2022-08-03T02:07:34.992Z,0.00
2022-08-03T02:08:23.992Z,0.00
2022-08-03T02:09:13.973Z,0.00
2022-08-03T02:10:03.961Z,0.00
2022-08-03T02:10:53.961Z,0.00
2022-08-03T02:11:43.942Z,0.00
2022-08-03T02:12:33.953Z,0.00
2022-08-03T02:13:23.931Z,0.00
2022-08-03T02:14:13.913Z,0.00
2022-08-03T02:15:03.909Z,0.00
2022-08-03T02:15:53.912Z,0.00
2022-08-03T02:16:43.890Z,0.00
2022-08-03T02:17:38.674Z,0.00
2022-08-03T02:18:24.863Z,0.00
2022-08-03T02:19:13.861Z,0.00
2022-08-03T02:20:03.852Z,0.00
2022-08-03T02:20:54.032Z,0.00
2022-08-03T02:21:56.949Z,0.00
2022-08-03T02:22:34.830Z,0.00
2022-08-03T02:23:23.822Z,0.00
2022-08-03T02:24:13.811Z,0.00
2022-08-03T02:25:03.799Z,0.00
2022-08-03T02:25:53.793Z,0.00
2022-08-03T02:26:43.791Z,0.00
2022-08-03T02:27:33.772Z,0.00
2022-08-03T02:28:23.764Z,0.00
2022-08-03T02:29:13.760Z,0.00
2022-08-03T02:30:03.741Z,0.00
2022-08-03T02:30:53.940Z,0.00
2022-08-03T02:31:43.721Z,0.00
2022-08-03T02:32:33.721Z,0.00
2022-08-03T02:33:23.705Z,0.00
2022-08-03T02:34:13.699Z,0.00
2022-08-03T02:35:03.711Z,0.00
2022-08-03T02:35:53.680Z,0.00
2022-08-03T02:36:43.770Z,0.00
2022-08-03T02:37:33.662Z,0.00
2022-08-03T02:38:23.650Z,0.00
2022-08-03T02:39:13.643Z,0.00
2022-08-03T02:40:03.632Z,0.00
2022-08-03T02:40:53.641Z,0.00
2022-08-03T02:41:43.611Z,0.00
2022-08-03T02:42:33.609Z,0.00
2022-08-03T02:43:23.590Z,0.00
2022-08-03T02:44:13.597Z,0.00
2022-08-03T02:45:03.571Z,0.00
2022-08-03T02:45:53.581Z,0.00
2022-08-03T02:46:43.580Z,0.00
2022-08-03T02:47:53.350Z,0.00
2022-08-03T02:48:24.540Z,0.00
2022-08-03T02:49:40.830Z,0.00
2022-08-03T02:50:04.583Z,0.00
2022-08-03T02:50:53.510Z,0.00
2022-08-03T02:51:43.500Z,0.00
2022-08-03T02:52:33.510Z,0.00
2022-08-03T02:53:23.479Z,0.00
2022-08-03T02:54:13.480Z,0.00
2022-08-03T02:55:03.460Z,0.00
2022-08-03T02:55:53.459Z,0.00
2022-08-03T02:56:43.458Z,0.00
2022-08-03T02:57:33.440Z,0.00
2022-08-03T02:58:23.437Z,0.00
2022-08-03T02:59:13.420Z,0.00
2022-08-03T03:00:03.409Z,0.00
2022-08-03T03:00:53.458Z,0.00
2022-08-03T03:01:43.417Z,0.00
2022-08-03T03:02:33.389Z,0.00
2022-08-03T03:03:23.388Z,0.00
2022-08-03T03:04:13.368Z,0.00
2022-08-03T03:05:55.074Z,0.00
2022-08-03T03:05:57.522Z,0.00
2022-08-03T03:06:43.333Z,0.00
2022-08-03T03:07:33.960Z,0.00
2022-08-03T03:08:25.977Z,0.00
2022-08-03T03:09:13.327Z,0.00
2022-08-03T03:10:03.299Z,0.00
2022-08-03T03:10:55.502Z,0.00
2022-08-03T03:11:43.279Z,0.00
2022-08-03T03:12:33.278Z,0.00
2022-08-03T03:13:23.279Z,0.00
2022-08-03T03:14:13.259Z,0.00
2022-08-03T03:15:03.247Z,0.00
2022-08-03T03:15:53.254Z,0.00
2022-08-03T03:16:43.219Z,0.00
2022-08-03T03:17:33.227Z,0.00
2022-08-03T03:18:23.274Z,0.00
2022-08-03T03:19:13.218Z,0.00
2022-08-03T03:20:03.187Z,0.00
2022-08-03T03:20:53.211Z,0.00
2022-08-03T03:21:43.169Z,0.00
2022-08-03T03:22:33.169Z,0.00
2022-08-03T03:23:23.153Z,0.00
2022-08-03T03:24:13.147Z,0.00
2022-08-03T03:25:03.138Z,0.00
2022-08-03T03:25:53.150Z,0.00
2022-08-03T03:26:43.118Z,0.00
2022-08-03T03:27:33.108Z,0.00
2022-08-03T03:28:23.095Z,0.00
2022-08-03T03:29:13.088Z,0.00
2022-08-03T03:30:03.118Z,0.00
2022-08-03T03:30:53.541Z,0.00
2022-08-03T03:31:43.058Z,0.00
2022-08-03T03:32:33.056Z,0.00
2022-08-03T03:33:23.039Z,4.00
2022-08-03T03:34:13.035Z,4.00
2022-08-03T03:35:03.106Z,0.00
2022-08-03T03:35:53.035Z,4.00
2022-08-03T03:36:43.006Z,4.00
2022-08-03T03:37:32.998Z,8.00
2022-08-03T03:38:22.987Z,4.00
2022-08-03T03:39:15.382Z,8.00
2022-08-03T03:40:02.986Z,8.00
2022-08-03T03:40:52.990Z,8.00
2022-08-03T03:41:42.949Z,12.00
2022-08-03T03:42:32.947Z,12.00
2022-08-03T03:43:22.927Z,12.00
2022-08-03T03:44:12.927Z,12.00
2022-08-03T03:45:02.907Z,16.00
2022-08-03T03:45:52.907Z,20.00
2022-08-03T03:46:42.907Z,24.00
2022-08-03T03:47:33.122Z,24.00
2022-08-03T03:48:22.877Z,28.00
2022-08-03T03:49:12.925Z,32.00
2022-08-03T03:50:02.856Z,36.00
2022-08-03T03:50:52.867Z,40.00
2022-08-03T03:51:42.837Z,44.00
2022-08-03T03:52:32.837Z,52.00
2022-08-03T03:53:22.827Z,56.00
2022-08-03T03:54:12.846Z,64.00
2022-08-03T03:55:02.804Z,68.00
2022-08-03T03:56:02.208Z,76.00
2022-08-03T03:56:43.785Z,84.00
2022-08-03T03:57:32.777Z,96.00
2022-08-03T03:58:22.765Z,104.00
2022-08-03T03:59:12.756Z,116.00
2022-08-03T04:00:02.757Z,128.00
2022-08-03T04:00:52.774Z,140.00
2022-08-03T04:01:42.746Z,148.00
2022-08-03T04:02:32.717Z,164.00
2022-08-03T04:03:22.896Z,176.00
2022-08-03T04:04:12.698Z,192.00
2022-08-03T04:05:02.696Z,204.00
2022-08-03T04:05:52.683Z,220.00
2022-08-03T04:06:42.676Z,236.00
2022-08-03T04:07:32.666Z,252.00
2022-08-03T04:08:22.655Z,268.00
2022-08-03T04:09:12.664Z,284.00
2022-08-03T04:10:14.399Z,304.00
2022-08-03T04:10:53.644Z,320.00
2022-08-03T04:11:42.625Z,340.00
2022-08-03T04:12:32.612Z,360.00
2022-08-03T04:13:22.604Z,380.00
2022-08-03T04:14:12.588Z,400.00
2022-08-03T04:15:02.586Z,420.00
2022-08-03T04:15:52.588Z,444.00
2022-08-03T04:16:44.022Z,464.00
2022-08-03T04:17:32.554Z,488.00
2022-08-03T04:18:22.566Z,508.00
2022-08-03T04:19:12.546Z,528.00
2022-08-03T04:20:02.555Z,552.00
2022-08-03T04:20:52.522Z,576.00
2022-08-03T04:21:42.525Z,596.00
2022-08-03T04:22:32.516Z,616.00
2022-08-03T04:23:22.494Z,640.00
2022-08-03T04:24:12.475Z,664.00
2022-08-03T04:25:02.484Z,688.00
2022-08-03T04:25:52.463Z,712.00
2022-08-03T04:26:42.456Z,732.00
2022-08-03T04:27:32.455Z,756.00
2022-08-03T04:28:31.070Z,784.00
2022-08-03T04:29:13.429Z,804.00
2022-08-03T04:30:02.423Z,828.00
2022-08-03T04:30:52.405Z,852.00
2022-08-03T04:31:42.403Z,872.00
2022-08-03T04:32:32.415Z,892.00
2022-08-03T04:33:22.386Z,916.00
2022-08-03T04:34:12.373Z,940.00
2022-08-03T04:35:02.367Z,964.00
2022-08-03T04:36:01.105Z,984.00
2022-08-03T04:36:43.344Z,1004.00
2022-08-03T04:37:32.333Z,1028.00
2022-08-03T04:38:22.344Z,1048.00
2022-08-03T04:39:12.316Z,1068.00
2022-08-03T04:40:02.313Z,1092.00
2022-08-03T04:40:52.294Z,1112.00
2022-08-03T04:42:04.404Z,1132.00
2022-08-03T04:42:33.274Z,1152.00
2022-08-03T04:43:22.274Z,1172.00
2022-08-03T04:44:12.261Z,1192.00
2022-08-03T04:45:02.254Z,1216.00
2022-08-03T04:45:52.244Z,1236.00
2022-08-03T04:46:42.346Z,1256.00
2022-08-03T04:47:33.235Z,1276.00
2022-08-03T04:48:22.235Z,1296.00
2022-08-03T04:49:12.261Z,1316.00
2022-08-03T04:50:02.205Z,1340.00
2022-08-03T04:50:52.203Z,1356.00
2022-08-03T04:51:42.183Z,1376.00
2022-08-03T04:52:32.168Z,1396.00
2022-08-03T04:53:22.165Z,1412.00
2022-08-03T04:54:12.164Z,1432.00
2022-08-03T04:55:02.144Z,1448.00
2022-08-03T04:55:52.132Z,1468.00
2022-08-03T04:56:42.134Z,1484.00
2022-08-03T04:57:32.123Z,1500.00
2022-08-03T04:58:22.103Z,1516.00
2022-08-03T04:59:12.091Z,1532.00
2022-08-03T05:00:03.640Z,1548.00
2022-08-03T05:00:52.089Z,1560.00
2022-08-03T05:01:42.206Z,1572.00
2022-08-03T05:02:32.173Z,1584.00
2022-08-03T05:03:24.458Z,1596.00
2022-08-03T05:04:12.054Z,1604.00
2022-08-03T05:05:02.036Z,1612.00
2022-08-03T05:05:52.035Z,1620.00
2022-08-03T05:06:48.343Z,1628.00
2022-08-03T05:07:36.377Z,1632.00
2022-08-03T05:08:27.874Z,1640.00
2022-08-03T05:09:13.002Z,1648.00
2022-08-03T05:10:03.283Z,1648.00
2022-08-03T05:10:51.983Z,1652.00
2022-08-03T05:11:41.961Z,1652.00
2022-08-03T05:12:33.224Z,1652.00
2022-08-03T05:13:21.943Z,1652.00
2022-08-03T05:14:11.930Z,1652.00
2022-08-03T05:15:01.926Z,1648.00
2022-08-03T05:15:51.903Z,1648.00
2022-08-03T05:16:41.921Z,1644.00
2022-08-03T05:17:31.892Z,1652.00
2022-08-03T05:18:21.882Z,1652.00
2022-08-03T05:19:11.873Z,1648.00
2022-08-03T05:20:01.873Z,1648.00
2022-08-03T05:20:51.854Z,1644.00
2022-08-03T05:21:52.332Z,1644.00
2022-08-03T05:22:32.843Z,1640.00
2022-08-03T05:23:21.832Z,1640.00
2022-08-03T05:24:11.813Z,1636.00
2022-08-03T05:25:01.812Z,1636.00
2022-08-03T05:25:51.801Z,1636.00
2022-08-03T05:26:41.822Z,1636.00
2022-08-03T05:27:31.782Z,1636.00
2022-08-03T05:28:21.774Z,1636.00
2022-08-03T05:29:11.764Z,1640.00
2022-08-03T05:30:29.673Z,1640.00
2022-08-03T05:30:52.741Z,1648.00
2022-08-03T05:31:41.743Z,1652.00
2022-08-03T05:32:31.751Z,1660.00
2022-08-03T05:33:21.721Z,1664.00
2022-08-03T05:34:11.702Z,1668.00
2022-08-03T05:35:56.195Z,1676.00
2022-08-03T05:35:57.443Z,1684.00
2022-08-03T05:36:42.683Z,1692.00
2022-08-03T05:37:31.670Z,1700.00
2022-08-03T05:38:27.987Z,1708.00
2022-08-03T05:39:12.652Z,1720.00
2022-08-03T05:40:01.652Z,1716.00
2022-08-03T05:40:57.585Z,1724.00
2022-08-03T05:41:42.629Z,1740.00
2022-08-03T05:42:31.622Z,1748.00
2022-08-03T05:43:21.611Z,1748.00
2022-08-03T05:44:11.592Z,1756.00
2022-08-03T05:45:01.594Z,1768.00
2022-08-03T05:46:11.687Z,1772.00
2022-08-03T05:46:42.572Z,1776.00
2022-08-03T05:47:31.563Z,1776.00
2022-08-03T05:48:21.554Z,1776.00
2022-08-03T05:49:11.599Z,1776.00
2022-08-03T05:50:01.543Z,1780.00
2022-08-03T05:50:51.523Z,1784.00
2022-08-03T05:51:41.542Z,1784.00
2022-08-03T05:52:31.506Z,1792.00
2022-08-03T05:53:21.502Z,1792.00
2022-08-03T05:54:11.501Z,1800.00
2022-08-03T05:55:01.481Z,1808.00
2022-08-03T05:55:56.150Z,1812.00
2022-08-03T05:56:42.469Z,1816.00
2022-08-03T05:57:31.470Z,1816.00
2022-08-03T05:58:21.451Z,1820.00
2022-08-03T05:59:35.733Z,1828.00
2022-08-03T06:00:02.441Z,1828.00
2022-08-03T06:00:51.411Z,1836.00
2022-08-03T06:01:41.448Z,1836.00
2022-08-03T06:02:31.400Z,1840.00
2022-08-03T06:03:21.390Z,1848.00
2022-08-03T06:04:11.380Z,1852.00
2022-08-03T06:05:01.396Z,1856.00
2022-08-03T06:05:59.952Z,1856.00
2022-08-03T06:06:42.360Z,1860.00
2022-08-03T06:07:31.341Z,1868.00
2022-08-03T06:08:21.350Z,1876.00
2022-08-03T06:09:11.321Z,1880.00
2022-08-03T06:10:36.292Z,1888.00
2022-08-03T06:10:52.321Z,1892.00
2022-08-03T06:11:41.301Z,1896.00
2022-08-03T06:12:31.291Z,1900.00
2022-08-03T06:13:21.308Z,1908.00
2022-08-03T06:14:11.282Z,1912.00
2022-08-03T06:15:01.270Z,1920.00
2022-08-03T06:15:51.250Z,1924.00
2022-08-03T06:16:41.251Z,1936.00
2022-08-03T06:17:37.181Z,1944.00
2022-08-03T06:18:22.260Z,1948.00
2022-08-03T06:19:11.230Z,1960.00
2022-08-03T06:20:01.213Z,1968.00
2022-08-03T06:20:51.211Z,1976.00
2022-08-03T06:21:41.198Z,1988.00
2022-08-03T06:22:31.182Z,1996.00
2022-08-03T06:23:21.181Z,2012.00
2022-08-03T06:24:11.161Z,2028.00
2022-08-03T06:25:03.491Z,2040.00
2022-08-03T06:25:51.148Z,2052.00
2022-08-03T06:26:41.160Z,2060.00
2022-08-03T06:27:37.189Z,2068.00
2022-08-03T06:28:52.733Z,2076.00
2022-08-03T06:29:12.111Z,2076.00
2022-08-03T06:30:01.110Z,2076.00
2022-08-03T06:30:51.090Z,2080.00
2022-08-03T06:31:41.101Z,2084.00
2022-08-03T06:32:31.074Z,2088.00
2022-08-03T06:33:21.070Z,2088.00
2022-08-03T06:34:32.505Z,2088.00
2022-08-03T06:35:02.050Z,2088.00
2022-08-03T06:35:51.040Z,2092.00
2022-08-03T06:36:41.050Z,2100.00
2022-08-03T06:37:31.020Z,2100.00
2022-08-03T06:38:21.019Z,2112.00
2022-08-03T06:39:11.017Z,2112.00
2022-08-03T06:40:01.049Z,2104.00
2022-08-03T06:40:50.990Z,2096.00
2022-08-03T06:41:44.756Z,2080.00
2022-08-03T06:42:30.991Z,2056.00
2022-08-03T06:43:20.968Z,2032.00
2022-08-03T06:44:10.974Z,2008.00
2022-08-03T06:45:00.962Z,1988.00
2022-08-03T06:45:50.938Z,1968.00
2022-08-03T06:46:40.937Z,1948.00
2022-08-03T06:47:30.921Z,1936.00
2022-08-03T06:48:20.922Z,1920.00
2022-08-03T06:49:10.992Z,1916.00
2022-08-03T06:50:12.695Z,1908.00
2022-08-03T06:50:51.890Z,1900.00
2022-08-03T06:52:05.740Z,1896.00
2022-08-03T06:52:38.059Z,1896.00
2022-08-03T06:53:21.867Z,1888.00
2022-08-03T06:54:10.850Z,1888.00
2022-08-03T06:55:00.859Z,1892.00
2022-08-03T06:55:54.411Z,1884.00
2022-08-03T06:56:40.849Z,1884.00
2022-08-03T06:57:30.820Z,1880.00
2022-08-03T06:58:20.821Z,1880.00
2022-08-03T07:00:08.022Z,1884.00
2022-08-03T07:00:08.708Z,1888.00
2022-08-03T07:00:51.799Z,1876.00
2022-08-03T07:01:40.830Z,1876.00
2022-08-03T07:02:30.790Z,1880.00
2022-08-03T07:03:20.865Z,1876.00
2022-08-03T07:04:10.757Z,1864.00
2022-08-03T07:05:00.750Z,1860.00
2022-08-03T07:05:50.749Z,1848.00
2022-08-03T07:06:40.760Z,1832.00
2022-08-03T07:07:30.720Z,1848.00
2022-08-03T07:08:33.800Z,1856.00
2022-08-03T07:09:11.706Z,1856.00
2022-08-03T07:10:00.699Z,1852.00
2022-08-03T07:10:50.691Z,1848.00
2022-08-03T07:11:40.689Z,1844.00
2022-08-03T07:12:30.684Z,1840.00
2022-08-03T07:13:20.670Z,1832.00
2022-08-03T07:14:10.700Z,1824.00
2022-08-03T07:15:02.138Z,1820.00
2022-08-03T07:15:55.403Z,1816.00
2022-08-03T07:16:41.630Z,1804.00
2022-08-03T07:17:30.632Z,1800.00
2022-08-03T07:18:27.573Z,1792.00
2022-08-03T07:19:11.598Z,1804.00
2022-08-03T07:20:00.600Z,1804.00
2022-08-03T07:20:50.580Z,1808.00
2022-08-03T07:21:40.579Z,1816.00
2022-08-03T07:22:30.580Z,1816.00
2022-08-03T07:23:20.559Z,1808.00
2022-08-03T07:24:10.547Z,1804.00
2022-08-03T07:25:00.539Z,1812.00
2022-08-03T07:25:50.527Z,1836.00
2022-08-03T07:26:40.539Z,1860.00
2022-08-03T07:27:30.548Z,1864.00
2022-08-03T07:28:20.511Z,1864.00
2022-08-03T07:29:14.819Z,1864.00
2022-08-03T07:30:01.600Z,1868.00
2022-08-03T07:30:50.470Z,1864.00
2022-08-03T07:31:40.459Z,1864.00
2022-08-03T07:32:30.469Z,1860.00
2022-08-03T07:33:20.458Z,1856.00
2022-08-03T07:34:10.449Z,1852.00
2022-08-03T07:35:01.426Z,1852.00
2022-08-03T07:35:50.420Z,1852.00
2022-08-03T07:36:40.409Z,1852.00
2022-08-03T07:37:30.400Z,1852.00
2022-08-03T07:38:21.169Z,1852.00
2022-08-03T07:39:17.455Z,1848.00
2022-08-03T07:40:01.369Z,1852.00
2022-08-03T07:40:50.359Z,1848.00
2022-08-03T07:41:41.375Z,1852.00
2022-08-03T07:42:30.340Z,1848.00
2022-08-03T07:43:20.333Z,1852.00
2022-08-03T07:44:10.322Z,1852.00
2022-08-03T07:45:00.344Z,1852.00
2022-08-03T07:45:50.301Z,1856.00
2022-08-03T07:46:40.298Z,1856.00
2022-08-03T07:47:35.571Z,1860.00
2022-08-03T07:48:21.302Z,1860.00
2022-08-03T07:49:10.322Z,1860.00
2022-08-03T07:50:00.262Z,1864.00
2022-08-03T07:50:50.259Z,1864.00
2022-08-03T07:51:40.232Z,1872.00
2022-08-03T07:52:30.231Z,1872.00
2022-08-03T07:53:20.219Z,1876.00
2022-08-03T07:54:10.254Z,1876.00
2022-08-03T07:55:00.189Z,1876.00
2022-08-03T07:55:50.211Z,1876.00
2022-08-03T07:56:40.177Z,1872.00
2022-08-03T07:57:30.170Z,1872.00
2022-08-03T07:58:23.989Z,1872.00
2022-08-03T07:59:10.170Z,1864.00
2022-08-03T08:00:02.151Z,1864.00
2022-08-03T08:00:50.165Z,1868.00
2022-08-03T08:01:40.154Z,1868.00
2022-08-03T08:02:30.137Z,1864.00
2022-08-03T08:03:20.109Z,1892.00
2022-08-03T08:04:10.100Z,1896.00
2022-08-03T08:05:05.309Z,1896.00
2022-08-03T08:05:51.070Z,1896.00
2022-08-03T08:06:40.050Z,1900.00
2022-08-03T08:07:30.059Z,1904.00
2022-08-03T08:08:20.030Z,1904.00
2022-08-03T08:09:10.029Z,1904.00
2022-08-03T08:10:00.012Z,1908.00
2022-08-03T08:10:58.405Z,1916.00
2022-08-03T08:11:41.009Z,1912.00
2022-08-03T08:12:29.988Z,1916.00
2022-08-03T08:13:19.971Z,1920.00
2022-08-03T08:14:09.967Z,1920.00
2022-08-03T08:14:59.950Z,1924.00
2022-08-03T08:15:49.979Z,1924.00
2022-08-03T08:16:39.931Z,1924.00
2022-08-03T08:17:29.930Z,1928.00
2022-08-03T08:18:19.921Z,1932.00
2022-08-03T08:19:10.011Z,1932.00
2022-08-03T08:19:59.890Z,1932.00
2022-08-03T08:20:49.880Z,1936.00
2022-08-03T08:21:53.057Z,1936.00
2022-08-03T08:22:31.492Z,1936.00
2022-08-03T08:23:42.200Z,1936.00
2022-08-03T08:24:11.069Z,1940.00
2022-08-03T08:25:01.039Z,1940.00
2022-08-03T08:25:49.842Z,1944.00
2022-08-03T08:26:39.809Z,1944.00
2022-08-03T08:28:29.234Z,1948.00
2022-08-03T08:28:29.786Z,1944.00
2022-08-03T08:29:10.782Z,1948.00
2022-08-03T08:30:07.255Z,1952.00
2022-08-03T08:30:50.790Z,1952.00
2022-08-03T08:31:39.751Z,1952.00
2022-08-03T08:32:29.751Z,1948.00
2022-08-03T08:33:23.409Z,1952.00
2022-08-03T08:34:09.731Z,1952.00
2022-08-03T08:34:59.718Z,1952.00
2022-08-03T08:35:49.712Z,1956.00
2022-08-03T08:36:39.712Z,1960.00
2022-08-03T08:37:29.691Z,1956.00
2022-08-03T08:38:19.690Z,1960.00
2022-08-03T08:39:09.691Z,1960.00
2022-08-03T08:39:59.659Z,1964.00
2022-08-03T08:40:49.664Z,1968.00
2022-08-03T08:41:39.653Z,1972.00
2022-08-03T08:42:30.639Z,1972.00
2022-08-03T08:43:19.631Z,1972.00
2022-08-03T08:44:09.621Z,1968.00
2022-08-03T08:44:59.619Z,1972.00
2022-08-03T08:45:49.599Z,1968.00
2022-08-03T08:46:39.582Z,1968.00
2022-08-03T08:47:29.580Z,1972.00
2022-08-03T08:48:20.597Z,1972.00
2022-08-03T08:49:09.616Z,1972.00
2022-08-03T08:50:09.753Z,1976.00
2022-08-03T08:50:50.543Z,1976.00
2022-08-03T08:51:50.999Z,1980.00
2022-08-03T08:52:32.154Z,1980.00
2022-08-03T08:53:22.776Z,1984.00
2022-08-03T08:54:10.511Z,1988.00
2022-08-03T08:55:00.176Z,1988.00
2022-08-03T08:55:58.611Z,1992.00
2022-08-03T08:56:40.493Z,1992.00
2022-08-03T08:57:42.426Z,1992.00
2022-08-03T08:58:21.055Z,2000.00
2022-08-03T08:59:09.454Z,1996.00
2022-08-03T08:59:59.441Z,1996.00
2022-08-03T09:00:49.486Z,2000.00
2022-08-03T09:01:39.423Z,1996.00
2022-08-03T09:02:29.461Z,2000.00
2022-08-03T09:03:22.720Z,2004.00
2022-08-03T09:04:10.401Z,2004.00
2022-08-03T09:05:01.930Z,2012.00
2022-08-03T09:05:55.715Z,2012.00
2022-08-03T09:06:50.198Z,2016.00
2022-08-03T09:07:30.587Z,2020.00
2022-08-03T09:08:19.352Z,2024.00
2022-08-03T09:09:09.342Z,2028.00
2022-08-03T09:10:11.549Z,2028.00
2022-08-03T09:10:50.344Z,2036.00
2022-08-03T09:12:00.455Z,2040.00
2022-08-03T09:12:41.443Z,2044.00
2022-08-03T09:13:20.294Z,2048.00
2022-08-03T09:14:09.283Z,2048.00
2022-08-03T09:15:15.840Z,2052.00
2022-08-03T09:15:52.777Z,2056.00
2022-08-03T09:16:40.253Z,2060.00
2022-08-03T09:17:29.251Z,2064.00
2022-08-03T09:18:19.243Z,2068.00
2022-08-03T09:19:09.244Z,2072.00
2022-08-03T09:20:03.631Z,2076.00
2022-08-03T09:20:49.222Z,2084.00
2022-08-03T09:21:39.203Z,2084.00
2022-08-03T09:22:29.194Z,2084.00
2022-08-03T09:23:59.091Z,2092.00
2022-08-03T09:24:20.606Z,2096.00
2022-08-03T09:25:22.804Z,2100.00
2022-08-03T09:25:50.178Z,2100.00
2022-08-03T09:26:39.164Z,2104.00
2022-08-03T09:27:29.144Z,2112.00
2022-08-03T09:28:52.881Z,2116.00
2022-08-03T09:29:14.375Z,2116.00
2022-08-03T09:30:00.148Z,2124.00
2022-08-03T09:30:49.112Z,2128.00
2022-08-03T09:31:39.114Z,2132.00
2022-08-03T09:32:29.093Z,2140.00
2022-08-03T09:33:19.076Z,2148.00
2022-08-03T09:34:09.075Z,2156.00
2022-08-03T09:34:59.055Z,2164.00
2022-08-03T09:35:54.186Z,2168.00
2022-08-03T09:36:40.055Z,2172.00
2022-08-03T09:38:08.569Z,2180.00
2022-08-03T09:38:20.024Z,2184.00
2022-08-03T09:39:09.016Z,2192.00
2022-08-03T09:39:59.025Z,2196.00
2022-08-03T09:40:49.004Z,2204.00
2022-08-03T09:41:38.986Z,2212.00
2022-08-03T09:42:28.995Z,2220.00
2022-08-03T09:43:18.967Z,2228.00
2022-08-03T09:44:08.975Z,2236.00
2022-08-03T09:44:59.953Z,2248.00
2022-08-03T09:45:48.946Z,2252.00
2022-08-03T09:46:38.946Z,2256.00
2022-08-03T09:47:28.927Z,2248.00
2022-08-03T09:48:18.916Z,2236.00
2022-08-03T09:49:11.938Z,2224.00
2022-08-03T09:49:59.074Z,2224.00
2022-08-03T09:50:57.020Z,2224.00
2022-08-03T09:52:32.613Z,2228.00
2022-08-03T09:52:38.134Z,2232.00
2022-08-03T09:53:19.867Z,2240.00
2022-08-03T09:54:16.350Z,2244.00
2022-08-03T09:54:59.866Z,2248.00
2022-08-03T09:56:33.620Z,2260.00
2022-08-03T09:56:39.835Z,2264.00
2022-08-03T09:57:28.827Z,2268.00
2022-08-03T09:58:18.817Z,2276.00
2022-08-03T09:59:08.829Z,2284.00
2022-08-03T10:00:04.427Z,2304.00
2022-08-03T10:00:49.818Z,2300.00
2022-08-03T10:01:38.825Z,2304.00
2022-08-03T10:02:28.778Z,2316.00
2022-08-03T10:03:18.798Z,2324.00
2022-08-03T10:04:08.758Z,2328.00
2022-08-03T10:04:58.746Z,2332.00
2022-08-03T10:05:48.778Z,2340.00
2022-08-03T10:06:38.748Z,2348.00
2022-08-03T10:07:28.719Z,2360.00
2022-08-03T10:08:18.707Z,2376.00
2022-08-03T10:09:08.708Z,2388.00
2022-08-03T10:09:58.688Z,2396.00
2022-08-03T10:10:49.689Z,2400.00
2022-08-03T10:11:41.672Z,2412.00
2022-08-03T10:12:28.699Z,2420.00
2022-08-03T10:13:18.658Z,2424.00
2022-08-03T10:14:08.649Z,2424.00
2022-08-03T10:14:58.646Z,2424.00
2022-08-03T10:16:22.592Z,2432.00
2022-08-03T10:16:39.638Z,2440.00
2022-08-03T10:17:28.622Z,2480.00
2022-08-03T10:18:18.617Z,2552.00
2022-08-03T10:19:08.598Z,2600.00
2022-08-03T10:19:58.591Z,2616.00
2022-08-03T10:20:48.587Z,2636.00
2022-08-03T10:21:38.581Z,2520.00
2022-08-03T10:22:28.569Z,2500.00
2022-08-03T10:23:18.574Z,2504.00
2022-08-03T10:24:08.550Z,2508.00
2022-08-03T10:24:58.559Z,2516.00
2022-08-03T10:25:48.531Z,2520.00
2022-08-03T10:26:38.510Z,2528.00